KSNS/SNS METAR and TAF weather

Enter ICAO airport designator
Station Type Date Time Source
KSNS METAR 2019/10/14 05:53 UTC NOAA

KSNS 140553Z AUTO 02004KT 10SM CLR 11/08 A2990 RMK AO2 SLP135 T01060083 10178 20106 51006


Station Type Date Time Source
KSNS Decoded METAR 2019/10/14 05:53 UTC NOAA

SALINAS MUNICIPAL AIRPORT, CA, United States (KSNS) 36-40N 121-36W 30M
Oct 14, 2019 - 01:53 AM EDT / 2019.10.14 0553 UTC
Wind: from the NNE (020 degrees) at 5 MPH (4 KT):0
Visibility: 10 mile(s):0
Sky conditions: clear
Temperature: 51.1 F (10.6 C)
Dew Point: 46.9 F (8.3 C)
Relative Humidity: 85%
Pressure (altimeter): 29.9 in. Hg (1012 hPa)
Pressure tendency: 0.02 inches (0.6 hPa) higher than three hours ago
ob: KSNS 140553Z AUTO 02004KT 10SM CLR 11/08 A2990 RMK AO2 SLP135 T01060083 10178 20106 51006
cycle: 6

Station Type Date Time Source
KSNS TAF 2019/10/14 06:30 UTC NOAA

TAF KSNS 140526Z 1406/1506 30006KT P6SM SKC
FM140700 VRB05KT P6SM SKC
TEMPO 1407/1411 BKN008
FM141600 12008KT P6SM SKC
FM141900 28011KT P6SM SKC
FM150200 31006KT P6SM SKC

Example: see airport list